createdAt,value
2023-02-04T00:00:31.330Z,99.90
2023-02-04T00:02:59.322Z,99.90
2023-02-04T00:05:27.444Z,99.90
2023-02-04T00:07:55.266Z,99.90
2023-02-04T00:10:23.111Z,99.90
2023-02-04T00:12:50.933Z,99.90
2023-02-04T00:15:18.991Z,99.90
2023-02-04T00:17:48.233Z,99.90
2023-02-04T00:20:16.082Z,99.90
2023-02-04T00:22:43.893Z,99.90
2023-02-04T00:25:12.025Z,99.90
2023-02-04T00:27:40.042Z,99.90
2023-02-04T00:30:09.638Z,99.90
2023-02-04T00:32:37.511Z,99.90
2023-02-04T00:35:07.360Z,99.90
2023-02-04T00:37:35.159Z,99.90
2023-02-04T00:40:03.012Z,99.90
2023-02-04T00:42:30.839Z,99.90
2023-02-04T00:44:59.557Z,99.90
2023-02-04T00:47:27.438Z,99.90
2023-02-04T00:49:57.565Z,99.90
2023-02-04T00:52:26.786Z,99.90
2023-02-04T00:54:54.603Z,99.90
2023-02-04T00:57:23.292Z,99.90
2023-02-04T00:59:51.149Z,99.90
2023-02-04T01:02:18.969Z,99.90
2023-02-04T01:04:46.828Z,99.90
2023-02-04T01:07:14.749Z,99.90
2023-02-04T01:09:43.919Z,99.90
2023-02-04T01:12:12.384Z,99.90
2023-02-04T01:14:40.179Z,99.90
2023-02-04T01:17:08.019Z,99.90
2023-02-04T01:19:35.850Z,99.90
2023-02-04T01:22:03.717Z,99.90
2023-02-04T01:24:31.508Z,99.90
2023-02-04T01:27:19.585Z,99.90
2023-02-04T01:29:47.392Z,99.90
2023-02-04T01:32:15.242Z,99.90
2023-02-04T01:34:43.027Z,99.90
2023-02-04T01:37:10.893Z,99.90
2023-02-04T01:39:38.736Z,99.90
2023-02-04T01:42:07.087Z,99.90
2023-02-04T01:44:36.417Z,99.90
2023-02-04T01:47:04.276Z,99.90
2023-02-04T01:49:32.302Z,99.90
2023-02-04T01:52:00.388Z,99.90
2023-02-04T01:54:28.500Z,99.90
2023-02-04T01:56:58.100Z,99.90
2023-02-04T01:59:27.581Z,99.90
2023-02-04T02:01:56.830Z,99.90
2023-02-04T02:04:30.580Z,99.90
2023-02-04T02:07:01.796Z,99.90
2023-02-04T02:09:30.974Z,99.90
2023-02-04T02:11:59.394Z,99.90
2023-02-04T02:14:27.355Z,99.90
2023-02-04T02:16:56.543Z,99.90
2023-02-04T02:19:29.429Z,99.90
2023-02-04T02:22:03.748Z,99.90
2023-02-04T02:24:34.414Z,99.90
2023-02-04T02:27:07.153Z,99.90
2023-02-04T02:29:35.418Z,99.90
2023-02-04T02:32:03.524Z,99.90
2023-02-04T02:34:31.777Z,99.90
2023-02-04T02:37:01.403Z,99.90
2023-02-04T02:39:29.583Z,99.90
2023-02-04T02:41:59.634Z,99.90
2023-02-04T02:44:30.387Z,99.90
2023-02-04T02:46:58.887Z,99.90
2023-02-04T02:49:28.635Z,99.90
2023-02-04T02:51:56.486Z,99.90
2023-02-04T02:54:27.568Z,99.90
2023-02-04T02:57:00.561Z,99.90
2023-02-04T02:59:28.784Z,99.90
2023-02-04T03:02:00.072Z,99.90
2023-02-04T03:04:32.820Z,99.90
2023-02-04T03:07:01.579Z,99.90
2023-02-04T03:09:30.811Z,99.90
2023-02-04T03:11:59.975Z,99.90
2023-02-04T03:14:28.914Z,99.90
2023-02-04T03:16:57.472Z,99.90
2023-02-04T03:19:26.774Z,99.90
2023-02-04T03:21:56.536Z,99.90
2023-02-04T03:24:25.078Z,99.90
2023-02-04T03:26:53.337Z,99.90
2023-02-04T03:29:22.481Z,99.90
2023-02-04T03:31:50.455Z,99.90
2023-02-04T03:34:18.587Z,99.90
2023-02-04T03:36:46.386Z,99.90
2023-02-04T03:39:14.213Z,99.90
2023-02-04T03:41:41.982Z,99.90
2023-02-04T03:44:09.909Z,99.90
2023-02-04T03:46:39.108Z,99.90
2023-02-04T03:49:06.885Z,99.90
2023-02-04T03:51:34.721Z,99.90
2023-02-04T03:54:02.556Z,99.90
2023-02-04T03:56:30.415Z,99.90
2023-02-04T03:58:58.220Z,99.90
2023-02-04T04:01:26.264Z,99.90
2023-02-04T04:03:55.380Z,99.90
2023-02-04T04:06:23.282Z,99.90
2023-02-04T04:08:51.253Z,99.90
2023-02-04T04:11:19.036Z,99.90
2023-02-04T04:13:46.842Z,99.90
2023-02-04T04:16:14.799Z,99.90
2023-02-04T04:18:42.604Z,99.90
2023-02-04T04:21:11.714Z,99.90
2023-02-04T04:23:39.784Z,99.90
2023-02-04T04:26:07.718Z,99.90
2023-02-04T04:28:35.510Z,99.90
2023-02-04T04:31:03.432Z,99.90
2023-02-04T04:33:31.342Z,99.90
2023-02-04T04:35:59.136Z,99.90
2023-02-04T04:38:28.378Z,99.90
2023-02-04T04:40:56.165Z,99.90
2023-02-04T04:43:23.991Z,99.90
2023-02-04T04:45:51.731Z,99.90
2023-02-04T04:48:21.465Z,99.90
2023-02-04T04:50:49.264Z,99.90
2023-02-04T04:53:17.044Z,99.90
2023-02-04T04:55:46.160Z,99.90
2023-02-04T04:58:14.004Z,99.90
2023-02-04T05:00:42.405Z,99.90
2023-02-04T05:03:10.196Z,99.90
2023-02-04T05:05:40.838Z,99.90
2023-02-04T05:08:10.934Z,99.90
2023-02-04T05:10:38.863Z,99.90
2023-02-04T05:13:08.232Z,99.90
2023-02-04T05:15:36.335Z,99.90
2023-02-04T05:18:04.176Z,99.90
2023-02-04T05:20:32.191Z,99.90
2023-02-04T05:23:01.125Z,99.90
2023-02-04T05:25:29.256Z,99.90
2023-02-04T05:27:57.127Z,99.90
2023-02-04T05:30:26.300Z,99.90
2023-02-04T05:32:54.193Z,99.90
2023-02-04T05:35:22.215Z,99.90
2023-02-04T05:37:49.980Z,99.90
2023-02-04T05:40:18.121Z,99.90
2023-02-04T05:42:45.912Z,99.90
2023-02-04T05:45:18.855Z,99.90
2023-02-04T05:47:47.982Z,99.90
2023-02-04T05:50:16.253Z,99.90
2023-02-04T05:52:44.082Z,99.90
2023-02-04T05:55:13.201Z,99.90
2023-02-04T05:57:41.002Z,99.90
2023-02-04T06:00:10.486Z,99.90
2023-02-04T06:02:41.054Z,99.90
2023-02-04T06:05:10.393Z,99.90
2023-02-04T06:07:38.216Z,99.90
2023-02-04T06:10:06.549Z,99.90
2023-02-04T06:12:34.390Z,99.90
2023-02-04T06:15:02.228Z,99.90
2023-02-04T06:17:30.021Z,99.90
2023-02-04T06:19:57.805Z,99.90
2023-02-04T06:22:26.926Z,99.90
2023-02-04T06:24:54.731Z,99.90
2023-02-04T06:27:24.205Z,99.90
2023-02-04T06:29:52.393Z,99.90
2023-02-04T06:32:20.849Z,99.90
2023-02-04T06:34:48.720Z,99.90
2023-02-04T06:37:17.154Z,99.90
2023-02-04T06:39:46.382Z,99.90
2023-02-04T06:42:14.220Z,99.90
2023-02-04T06:44:41.985Z,99.90
2023-02-04T06:47:09.863Z,99.90
2023-02-04T06:49:37.786Z,99.90
2023-02-04T06:52:06.354Z,99.90
2023-02-04T06:54:34.167Z,99.90
2023-02-04T06:57:06.666Z,99.90
2023-02-04T06:59:34.939Z,99.90
2023-02-04T07:02:02.872Z,99.90
2023-02-04T07:04:30.669Z,99.90
2023-02-04T07:06:58.480Z,99.90
2023-02-04T07:09:26.309Z,99.90
2023-02-04T07:11:54.118Z,99.90
2023-02-04T07:14:23.331Z,99.90
2023-02-04T07:16:51.193Z,99.90
2023-02-04T07:19:21.071Z,99.90
2023-02-04T07:21:53.880Z,99.90
2023-02-04T07:24:21.946Z,99.90
2023-02-04T07:26:49.882Z,99.90
2023-02-04T07:29:25.122Z,99.90
2023-02-04T07:31:55.302Z,99.90
2023-02-04T07:34:23.177Z,99.90
2023-02-04T07:36:51.231Z,99.90
2023-02-04T07:39:19.138Z,99.90
2023-02-04T07:41:46.959Z,99.90
2023-02-04T07:44:17.358Z,99.90
2023-02-04T07:46:45.277Z,99.90
2023-02-04T07:49:14.536Z,99.90
2023-02-04T07:51:43.558Z,99.90
2023-02-04T07:54:11.609Z,99.90
2023-02-04T07:56:39.459Z,99.90
2023-02-04T07:59:07.372Z,99.90
2023-02-04T08:01:35.387Z,99.90
2023-02-04T08:04:03.512Z,99.90
2023-02-04T08:06:32.665Z,99.90
2023-02-04T08:09:00.571Z,99.90
2023-02-04T08:11:28.517Z,99.90
2023-02-04T08:13:56.377Z,99.90
2023-02-04T08:16:24.336Z,99.90
2023-02-04T08:18:52.215Z,99.90
2023-02-04T08:21:20.052Z,99.90
2023-02-04T08:23:50.397Z,99.90
2023-02-04T08:26:21.541Z,99.90
2023-02-04T08:28:50.044Z,99.90
2023-02-04T08:31:24.355Z,99.90
2023-02-04T08:33:53.512Z,99.90
2023-02-04T08:36:21.811Z,99.90
2023-02-04T08:38:51.003Z,99.90
2023-02-04T08:41:18.925Z,99.90
2023-02-04T08:43:46.795Z,99.90
2023-02-04T08:46:14.924Z,99.90
2023-02-04T08:48:43.506Z,99.90
2023-02-04T08:51:11.429Z,99.90
2023-02-04T08:53:40.879Z,99.90
2023-02-04T08:56:10.621Z,99.90
2023-02-04T08:58:39.793Z,99.90
2023-02-04T09:01:08.174Z,99.90
2023-02-04T09:03:36.042Z,99.90
2023-02-04T09:06:03.935Z,99.90
2023-02-04T09:08:31.961Z,99.90
2023-02-04T09:10:59.896Z,99.90
2023-02-04T09:13:29.576Z,99.90
2023-02-04T09:15:57.989Z,99.90
2023-02-04T09:18:28.958Z,99.90
2023-02-04T09:20:57.091Z,99.90
2023-02-04T09:23:25.476Z,99.90
2023-02-04T09:25:53.856Z,99.90
2023-02-04T09:28:23.998Z,99.90
2023-02-04T09:31:03.018Z,99.90
2023-02-04T09:33:37.441Z,99.90
2023-02-04T09:36:09.128Z,99.90
2023-02-04T09:38:39.165Z,99.90
2023-02-04T09:41:10.031Z,99.90
2023-02-04T09:43:41.359Z,99.90
2023-02-04T09:46:19.788Z,99.90
2023-02-04T09:48:47.727Z,99.90
2023-02-04T09:51:18.632Z,99.90
2023-02-04T09:53:47.244Z,99.90
2023-02-04T09:56:15.735Z,99.90
2023-02-04T09:58:43.964Z,99.90
2023-02-04T10:01:17.157Z,99.90
2023-02-04T10:03:47.573Z,99.90
2023-02-04T10:06:16.627Z,99.90
2023-02-04T10:08:47.564Z,99.90
2023-02-04T10:11:17.218Z,99.90
2023-02-04T10:13:50.271Z,99.90
2023-02-04T10:16:22.236Z,99.90
2023-02-04T10:18:50.674Z,99.90
2023-02-04T10:21:21.739Z,99.90
2023-02-04T10:23:52.247Z,99.90
2023-02-04T10:26:28.442Z,99.90
2023-02-04T10:29:00.610Z,99.90
2023-02-04T10:31:36.116Z,99.90
2023-02-04T10:34:23.019Z,99.90
2023-02-04T10:36:52.371Z,99.90
2023-02-04T10:39:24.329Z,99.90
2023-02-04T10:41:53.905Z,99.90
2023-02-04T10:44:28.051Z,99.90
2023-02-04T10:47:05.051Z,99.90
2023-02-04T10:49:33.839Z,99.90
2023-02-04T10:52:03.484Z,99.70
2023-02-04T10:54:39.257Z,98.30
2023-02-04T10:57:15.463Z,97.40
2023-02-04T10:59:44.198Z,96.10
2023-02-04T11:02:42.006Z,96.70
2023-02-04T11:05:14.125Z,95.70
2023-02-04T11:07:42.084Z,93.00
2023-02-04T11:10:15.078Z,91.00
2023-02-04T11:12:45.542Z,90.30
2023-02-04T11:15:44.371Z,89.30
2023-02-04T11:18:27.334Z,87.10
2023-02-04T11:20:58.257Z,86.00
2023-02-04T11:23:37.843Z,76.20
2023-02-04T11:26:09.396Z,76.40
2023-02-04T11:28:49.831Z,78.30
2023-02-04T11:31:42.719Z,78.30
2023-02-04T11:34:27.333Z,78.90
2023-02-04T11:37:17.535Z,79.40
2023-02-04T11:39:47.412Z,80.90
2023-02-04T11:42:21.360Z,81.70
2023-02-04T11:44:54.297Z,82.20
2023-02-04T11:47:24.581Z,84.60
2023-02-04T11:49:58.440Z,85.40
2023-02-04T11:52:26.368Z,85.40
2023-02-04T11:54:55.508Z,85.20
2023-02-04T11:57:23.477Z,84.20
2023-02-04T11:59:51.393Z,83.50
2023-02-04T12:02:21.127Z,82.30
2023-02-04T12:04:58.035Z,81.20
2023-02-04T12:07:28.490Z,79.00
2023-02-04T12:09:57.129Z,78.80
2023-02-04T12:12:27.469Z,79.40
2023-02-04T12:15:02.532Z,78.80
2023-02-04T12:17:30.641Z,76.70
2023-02-04T12:19:59.861Z,75.00
2023-02-04T12:22:27.712Z,68.70
2023-02-04T12:24:55.473Z,64.00
2023-02-04T12:27:23.273Z,64.60
2023-02-04T12:29:51.065Z,63.10
2023-02-04T12:32:18.896Z,62.90
2023-02-04T12:34:46.647Z,63.90
2023-02-04T12:37:15.762Z,63.00
2023-02-04T12:39:43.547Z,64.60
2023-02-04T12:42:11.393Z,66.80
2023-02-04T12:44:39.180Z,68.00
2023-02-04T12:47:07.001Z,69.90
2023-02-04T12:49:34.773Z,68.40
2023-02-04T12:52:03.159Z,68.00
2023-02-04T12:54:32.273Z,69.30
2023-02-04T12:57:00.149Z,69.20
2023-02-04T12:59:28.058Z,70.40
2023-02-04T13:01:55.976Z,71.70
2023-02-04T13:04:23.838Z,72.50
2023-02-04T13:06:51.700Z,73.40
2023-02-04T13:09:19.593Z,73.20
2023-02-04T13:11:48.768Z,72.00
2023-02-04T13:14:16.607Z,71.80
2023-02-04T13:16:44.556Z,71.90
2023-02-04T13:19:12.343Z,71.40
2023-02-04T13:21:40.128Z,70.80
2023-02-04T13:24:10.751Z,69.10
2023-02-04T13:26:38.541Z,69.40
2023-02-04T13:29:07.754Z,69.20
2023-02-04T13:31:35.577Z,68.10
2023-02-04T13:34:03.382Z,68.20
2023-02-04T13:36:31.286Z,67.60
2023-02-04T13:39:00.140Z,66.40
2023-02-04T13:41:28.268Z,67.00
2023-02-04T13:43:56.184Z,64.40
2023-02-04T13:46:25.439Z,63.40
2023-02-04T13:48:53.412Z,62.80
2023-02-04T13:51:21.326Z,61.10
2023-02-04T13:53:49.172Z,60.00
2023-02-04T13:56:16.980Z,59.60
2023-02-04T13:58:45.547Z,59.50
2023-02-04T14:01:13.583Z,59.20
2023-02-04T14:03:43.870Z,58.90
2023-02-04T14:06:12.824Z,59.50
2023-02-04T14:08:40.742Z,59.60
2023-02-04T14:11:08.561Z,60.60
2023-02-04T14:13:36.399Z,61.90
2023-02-04T14:16:05.317Z,62.90
2023-02-04T14:18:33.252Z,65.00
2023-02-04T14:21:02.389Z,66.60
2023-02-04T14:23:30.178Z,67.90
2023-02-04T14:25:57.960Z,68.40
2023-02-04T14:28:25.876Z,69.10
2023-02-04T14:30:55.144Z,69.90
2023-02-04T14:33:23.478Z,70.60
2023-02-04T14:35:51.259Z,70.50
2023-02-04T14:38:20.487Z,70.70
2023-02-04T14:40:48.318Z,69.30
2023-02-04T14:43:16.112Z,68.80
2023-02-04T14:45:43.979Z,70.50
2023-02-04T14:48:11.853Z,71.10
2023-02-04T14:50:40.103Z,71.10
2023-02-04T14:53:07.994Z,70.60
2023-02-04T14:55:37.417Z,69.90
2023-02-04T14:58:05.287Z,70.10
2023-02-04T15:00:33.466Z,70.40
2023-02-04T15:03:01.599Z,70.20
2023-02-04T15:05:29.406Z,69.60
2023-02-04T15:07:57.202Z,69.70
2023-02-04T15:10:25.468Z,69.50
2023-02-04T15:12:55.880Z,70.50
2023-02-04T15:15:23.782Z,70.50
2023-02-04T15:17:51.630Z,70.80
2023-02-04T15:20:19.637Z,70.50
2023-02-04T15:22:51.715Z,69.70
2023-02-04T15:25:20.124Z,69.20
2023-02-04T15:27:48.330Z,70.00
2023-02-04T15:30:18.268Z,70.10
2023-02-04T15:32:46.235Z,69.90
2023-02-04T15:35:14.627Z,69.90
2023-02-04T15:37:42.584Z,70.20
2023-02-04T15:40:12.429Z,71.30
2023-02-04T15:42:41.373Z,71.90
2023-02-04T15:45:09.917Z,72.60
2023-02-04T15:47:39.082Z,73.20
2023-02-04T15:50:09.264Z,73.40
2023-02-04T15:52:37.107Z,74.20
2023-02-04T15:55:06.679Z,75.10
2023-02-04T15:57:34.587Z,76.10
2023-02-04T16:00:02.497Z,77.10
2023-02-04T16:02:32.767Z,77.70
2023-02-04T16:05:01.997Z,78.20
2023-02-04T16:07:29.802Z,78.90
2023-02-04T16:09:57.571Z,80.80
2023-02-04T16:12:25.504Z,83.40
2023-02-04T16:14:53.429Z,85.00
2023-02-04T16:17:21.274Z,86.60
2023-02-04T16:19:49.104Z,90.00
2023-02-04T16:22:18.370Z,91.60
2023-02-04T16:24:46.224Z,93.10
2023-02-04T16:27:14.125Z,95.10
2023-02-04T16:29:41.930Z,97.00
2023-02-04T16:32:09.816Z,99.10
2023-02-04T16:34:37.728Z,99.90
2023-02-04T16:37:05.743Z,99.90
2023-02-04T16:39:36.888Z,99.90
2023-02-04T16:42:06.629Z,99.90
2023-02-04T16:44:34.741Z,99.90
2023-02-04T16:47:02.618Z,99.90
2023-02-04T16:49:30.752Z,99.90
2023-02-04T16:51:58.555Z,99.90
2023-02-04T16:54:26.606Z,99.90
2023-02-04T16:56:56.807Z,99.90
2023-02-04T16:59:24.674Z,99.90
2023-02-04T17:01:52.531Z,99.90
2023-02-04T17:04:20.689Z,99.90
2023-02-04T17:06:48.537Z,99.90
2023-02-04T17:09:16.340Z,99.90
2023-02-04T17:11:45.074Z,99.90
2023-02-04T17:14:15.961Z,99.90
2023-02-04T17:16:44.499Z,99.90
2023-02-04T17:19:13.205Z,99.90
2023-02-04T17:21:41.078Z,99.90
2023-02-04T17:24:09.875Z,99.90
2023-02-04T17:26:39.792Z,99.90
2023-02-04T17:29:09.563Z,99.90
2023-02-04T17:31:39.208Z,99.90
2023-02-04T17:34:07.655Z,99.90
2023-02-04T17:36:36.211Z,99.90
2023-02-04T17:39:04.535Z,99.90
2023-02-04T17:41:32.543Z,99.90
2023-02-04T17:44:00.389Z,99.90
2023-02-04T17:46:28.354Z,99.90
2023-02-04T17:48:58.687Z,99.90
2023-02-04T17:51:26.625Z,99.90
2023-02-04T17:53:54.553Z,99.90
2023-02-04T17:56:22.518Z,99.90
2023-02-04T17:58:50.573Z,99.90
2023-02-04T18:01:21.768Z,99.90
2023-02-04T18:03:50.784Z,99.90
2023-02-04T18:06:27.109Z,99.90
2023-02-04T18:09:01.284Z,99.90
2023-02-04T18:11:32.995Z,99.90
2023-02-04T18:14:06.069Z,99.90
2023-02-04T18:16:36.788Z,99.90
2023-02-04T18:19:18.368Z,99.90
2023-02-04T18:21:47.959Z,99.90
2023-02-04T18:24:18.761Z,99.90
2023-02-04T18:26:49.030Z,99.90
2023-02-04T18:29:32.630Z,99.90
2023-02-04T18:32:03.350Z,99.90
2023-02-04T18:34:36.246Z,99.90
2023-02-04T18:37:31.019Z,99.90
2023-02-04T18:40:20.058Z,99.90
2023-02-04T18:42:48.122Z,99.90
2023-02-04T18:45:23.860Z,99.90
2023-02-04T18:47:54.328Z,99.90
2023-02-04T18:50:29.788Z,99.90
2023-02-04T18:53:02.264Z,99.90
2023-02-04T18:55:34.749Z,99.90
2023-02-04T18:58:25.367Z,99.90
2023-02-04T19:00:57.196Z,99.90
2023-02-04T19:03:27.036Z,99.90
2023-02-04T19:05:55.983Z,99.90
2023-02-04T19:08:30.234Z,99.90
2023-02-04T19:11:00.955Z,99.90
2023-02-04T19:13:39.389Z,99.90
2023-02-04T19:16:21.195Z,99.90
2023-02-04T19:18:49.211Z,99.90
2023-02-04T19:21:27.205Z,99.90
2023-02-04T19:24:02.619Z,99.90
2023-02-04T19:26:35.015Z,99.90
2023-02-04T19:29:34.005Z,99.90
2023-02-04T19:32:19.618Z,99.90
2023-02-04T19:34:47.547Z,99.90
2023-02-04T19:37:21.472Z,99.90
2023-02-04T19:39:52.195Z,99.90
2023-02-04T19:42:30.524Z,99.90
2023-02-04T19:45:01.121Z,99.90
2023-02-04T19:47:30.747Z,99.90
2023-02-04T19:50:21.516Z,99.90
2023-02-04T19:52:52.182Z,99.90
2023-02-04T19:55:34.220Z,99.90
2023-02-04T19:58:12.150Z,99.90
2023-02-04T20:00:46.742Z,99.90
2023-02-04T20:03:28.294Z,99.90
2023-02-04T20:06:01.801Z,99.90
2023-02-04T20:08:45.583Z,99.90
2023-02-04T20:11:35.539Z,99.90
2023-02-04T20:14:27.614Z,99.90
2023-02-04T20:16:58.412Z,99.90
2023-02-04T20:19:37.818Z,99.90
2023-02-04T20:22:43.560Z,99.90
2023-02-04T20:25:44.687Z,99.90
2023-02-04T20:28:33.990Z,99.90
2023-02-04T20:31:02.833Z,99.90
2023-02-04T20:33:34.814Z,99.90
2023-02-04T20:36:34.734Z,99.90
2023-02-04T20:39:34.333Z,99.90
2023-02-04T20:42:35.639Z,99.90
2023-02-04T20:45:27.810Z,99.90
2023-02-04T20:47:59.762Z,99.90
2023-02-04T20:50:41.489Z,99.90
2023-02-04T20:53:20.029Z,99.90
2023-02-04T20:55:50.752Z,99.90
2023-02-04T20:58:21.030Z,99.90
2023-02-04T21:00:52.600Z,99.90
2023-02-04T21:03:23.808Z,99.90
2023-02-04T21:05:52.685Z,99.90
2023-02-04T21:08:45.722Z,99.90
2023-02-04T21:11:13.789Z,99.90
2023-02-04T21:13:41.900Z,99.90
2023-02-04T21:16:11.412Z,99.90
2023-02-04T21:18:39.660Z,99.90
2023-02-04T21:21:09.890Z,99.90
2023-02-04T21:23:38.233Z,99.90
2023-02-04T21:26:07.169Z,99.90
2023-02-04T21:28:35.151Z,99.90
2023-02-04T21:31:03.165Z,99.90
2023-02-04T21:33:33.133Z,99.90
2023-02-04T21:36:00.922Z,99.90
2023-02-04T21:38:28.733Z,99.90
2023-02-04T21:40:56.582Z,99.90
2023-02-04T21:43:24.428Z,99.90
2023-02-04T21:45:52.238Z,99.90
2023-02-04T21:48:20.068Z,99.90
2023-02-04T21:50:49.286Z,99.90
2023-02-04T21:53:17.117Z,99.90
2023-02-04T21:55:44.932Z,99.90
2023-02-04T21:58:12.757Z,99.90
2023-02-04T22:00:40.714Z,99.90
2023-02-04T22:03:15.439Z,99.90
2023-02-04T22:05:43.617Z,99.90
2023-02-04T22:08:13.180Z,99.90
2023-02-04T22:10:40.969Z,99.90
2023-02-04T22:13:08.748Z,99.90
2023-02-04T22:15:36.549Z,99.90
2023-02-04T22:18:04.462Z,99.90
2023-02-04T22:20:32.290Z,99.90
2023-02-04T22:23:00.112Z,99.90
2023-02-04T22:25:29.279Z,99.90
2023-02-04T22:27:57.111Z,99.90
2023-02-04T22:30:24.948Z,99.90
2023-02-04T22:32:52.820Z,99.90
2023-02-04T22:35:20.735Z,99.90
2023-02-04T22:37:48.556Z,99.90
2023-02-04T22:40:16.365Z,99.90
2023-02-04T22:42:45.552Z,99.90
2023-02-04T22:45:13.342Z,99.90
2023-02-04T22:47:41.211Z,99.90
2023-02-04T22:50:09.741Z,99.90
2023-02-04T22:52:37.673Z,99.90
2023-02-04T22:55:06.010Z,99.90
2023-02-04T22:57:33.841Z,99.90
2023-02-04T23:00:03.155Z,99.90
2023-02-04T23:02:31.043Z,99.90
2023-02-04T23:04:58.877Z,99.90
2023-02-04T23:07:26.811Z,99.90
2023-02-04T23:09:54.631Z,99.90
2023-02-04T23:12:22.485Z,99.90
2023-02-04T23:14:50.904Z,99.90
2023-02-04T23:17:20.350Z,99.90
2023-02-04T23:19:48.163Z,99.90
2023-02-04T23:22:18.168Z,99.90
2023-02-04T23:24:46.191Z,99.90
2023-02-04T23:27:14.060Z,99.90
2023-02-04T23:29:42.261Z,99.90
2023-02-04T23:32:10.376Z,99.90
2023-02-04T23:34:39.585Z,99.90
2023-02-04T23:37:07.460Z,99.90
2023-02-04T23:39:35.336Z,99.90
2023-02-04T23:42:03.412Z,99.90
2023-02-04T23:44:31.339Z,99.90
2023-02-04T23:46:59.211Z,99.90
2023-02-04T23:49:26.980Z,99.90
2023-02-04T23:51:56.137Z,99.90
2023-02-04T23:54:24.580Z,99.90
2023-02-04T23:56:53.249Z,99.90
2023-02-04T23:59:21.089Z,99.90
